Time;durP1;ratioP1;P1;durP2;ratioP2;P2;SDS_P1;SDS_P2;PMS_P1;PMS_P2;Temp;Humidity;BMP_temperature;BMP_pressure;BME280_temperature;BME280_humidity;BME280_pressure;Samples;Min_cycle;Max_cycle;Signal;HPM_P1;HPM_P2
2021/03/24 00:00:01;;;;;;;27.58;18.77;;;2.50;88.80;;;;;;5072213;28;20203;-83
2021/03/24 00:02:27;;;;;;;21.73;15.90;;;2.60;88.20;;;;;;5072237;28;20203;-84
2021/03/24 00:04:54;;;;;;;22.13;16.60;;;2.60;87.50;;;;;;5072140;28;20196;-83
2021/03/24 00:07:21;;;;;;;22.92;17.50;;;2.60;85.90;;;;;;5072685;28;20229;-83
2021/03/24 00:09:47;;;;;;;21.65;16.48;;;2.50;85.50;;;;;;5070219;28;20219;-84
2021/03/24 00:12:14;;;;;;;25.38;17.48;;;2.50;86.30;;;;;;5071767;28;20276;-83
2021/03/24 00:14:40;;;;;;;21.30;16.92;;;2.70;87.40;;;;;;5070625;28;20199;-83
2021/03/24 00:17:07;;;;;;;23.33;16.92;;;2.60;86.30;;;;;;5071325;28;20375;-84
2021/03/24 00:19:33;;;;;;;29.13;17.73;;;2.60;85.70;;;;;;5071534;28;20214;-83
2021/03/24 00:22:00;;;;;;;28.05;17.25;;;2.60;85.60;;;;;;5071231;28;20574;-83
2021/03/24 00:24:27;;;;;;;26.77;16.88;;;2.60;85.60;;;;;;5069983;28;20211;-83
2021/03/24 00:26:53;;;;;;;22.48;16.52;;;2.50;85.60;;;;;;5070314;28;20211;-83
2021/03/24 00:29:19;;;;;;;22.38;16.17;;;2.50;85.80;;;;;;5070738;28;20594;-84
2021/03/24 00:31:46;;;;;;;25.23;17.10;;;2.50;85.90;;;;;;5070248;28;20200;-83
2021/03/24 00:34:12;;;;;;;22.15;15.68;;;2.50;86.20;;;;;;5070126;28;20192;-83
2021/03/24 00:36:39;;;;;;;22.90;17.60;;;2.60;86.00;;;;;;5069521;28;20212;-83
2021/03/24 00:39:06;;;;;;;23.15;17.20;;;2.70;86.70;;;;;;5070421;28;20613;-83
2021/03/24 00:41:33;;;;;;;18.10;16.25;;;2.70;87.70;;;;;;5069538;28;20199;-83
2021/03/24 00:43:59;;;;;;;25.08;17.55;;;2.70;86.70;;;;;;5070023;28;20192;-83
2021/03/24 00:46:26;;;;;;;24.00;17.52;;;2.80;86.70;;;;;;5070825;28;20210;-83
2021/03/24 00:48:52;;;;;;;25.00;18.25;;;2.70;85.60;;;;;;5070114;28;20192;-83
2021/03/24 00:51:18;;;;;;;22.15;16.92;;;2.60;85.10;;;;;;5070974;28;20227;-83
2021/03/24 00:53:45;;;;;;;19.45;15.95;;;2.60;85.10;;;;;;5069200;28;20200;-83
2021/03/24 00:56:12;;;;;;;22.85;17.25;;;2.60;84.90;;;;;;5070590;28;20680;-83
2021/03/24 00:58:39;;;;;;;21.35;16.88;;;2.50;85.30;;;;;;5069753;28;20244;-82
2021/03/24 01:01:05;;;;;;;20.15;16.60;;;2.50;85.40;;;;;;5070294;28;20253;-84
2021/03/24 01:03:32;;;;;;;21.58;17.60;;;2.50;85.30;;;;;;5070091;28;20210;-83
2021/03/24 01:05:58;;;;;;;23.30;18.65;;;2.50;85.40;;;;;;5070084;28;20203;-83
2021/03/24 01:08:26;;;;;;;27.40;17.70;;;2.50;85.80;;;;;;5070537;28;20214;-83
2021/03/24 01:10:54;;;;;;;22.63;16.02;;;2.50;85.90;;;;;;5069838;28;20264;-82
2021/03/24 01:13:22;;;;;;;24.50;17.88;;;2.50;85.80;;;;;;5070447;28;20199;-83
2021/03/24 01:15:49;;;;;;;21.98;17.58;;;2.50;85.50;;;;;;5070254;28;20558;-83
2021/03/24 01:18:17;;;;;;;23.42;17.25;;;2.40;85.10;;;;;;5071572;28;20207;-83
2021/03/24 01:20:44;;;;;;;25.40;17.90;;;2.30;85.20;;;;;;5071591;28;20206;-82
2021/03/24 01:23:11;;;;;;;21.65;17.38;;;2.30;85.70;;;;;;5070262;28;20597;-83
2021/03/24 01:25:38;;;;;;;28.15;18.30;;;2.30;86.30;;;;;;5070051;28;20203;-82
2021/03/24 01:28:07;;;;;;;24.98;17.63;;;2.20;86.30;;;;;;5070509;28;20203;-82
2021/03/24 01:30:35;;;;;;;23.50;16.65;;;2.20;86.50;;;;;;5069823;28;20251;-83
2021/03/24 01:33:02;;;;;;;23.80;17.35;;;2.20;86.50;;;;;;5069753;28;20206;-83
2021/03/24 01:35:28;;;;;;;23.30;17.15;;;2.10;86.50;;;;;;5070154;28;20551;-82
2021/03/24 01:37:55;;;;;;;23.98;18.00;;;2.10;86.50;;;;;;5068947;28;20215;-83
2021/03/24 01:40:27;;;;;;;24.17;17.33;;;2.10;86.40;;;;;;5069762;28;20252;-84
2021/03/24 01:42:56;;;;;;;31.02;17.90;;;2.10;86.80;;;;;;5069769;28;20211;-82
2021/03/24 01:46:08;;;;;;;20.20;16.30;;;2.10;86.90;;;;;;5069773;28;20199;-83
2021/03/24 01:48:37;;;;;;;24.42;18.80;;;2.10;87.30;;;;;;5070238;28;20713;-83
2021/03/24 01:51:06;;;;;;;24.23;18.45;;;2.20;88.50;;;;;;5070393;28;20231;-83
2021/03/24 01:53:35;;;;;;;28.58;18.13;;;2.20;88.20;;;;;;5069972;28;20199;-83
2021/03/24 01:56:02;;;;;;;27.60;18.20;;;2.20;87.20;;;;;;5070793;28;20199;-83
2021/03/24 01:58:29;;;;;;;21.73;17.20;;;2.20;86.90;;;;;;5071227;28;20301;-83
2021/03/24 02:00:55;;;;;;;23.05;16.95;;;2.20;87.10;;;;;;5069115;28;20199;-83
2021/03/24 02:03:24;;;;;;;25.13;18.25;;;2.10;87.60;;;;;;5069108;28;20227;-83
2021/03/24 02:05:53;;;;;;;31.33;17.60;;;2.10;88.50;;;;;;5070157;28;20210;-83
2021/03/24 02:08:26;;;;;;;21.23;17.25;;;2.10;87.70;;;;;;5065582;28;20203;-82
2021/03/24 02:11:00;;;;;;;20.77;16.88;;;2.10;87.00;;;;;;5063582;28;20581;-83
2021/03/24 02:13:33;;;;;;;19.30;16.60;;;2.00;86.70;;;;;;5067870;28;20203;-83
2021/03/24 02:16:06;;;;;;;25.88;16.65;;;2.00;86.50;;;;;;5069535;28;20674;-83
2021/03/24 02:18:36;;;;;;;19.55;16.30;;;2.00;86.20;;;;;;5069145;28;20211;-83
2021/03/24 02:21:08;;;;;;;26.65;17.08;;;1.90;85.90;;;;;;5068614;28;20195;-83
2021/03/24 02:23:46;;;;;;;24.10;18.85;;;1.80;86.50;;;;;;5068520;28;20256;-83
2021/03/24 02:26:19;;;;;;;20.25;15.95;;;1.80;86.00;;;;;;5068606;28;20724;-82
2021/03/24 02:28:51;;;;;;;19.55;15.95;;;1.70;86.00;;;;;;5068397;28;20199;-83
2021/03/24 02:31:22;;;;;;;24.98;17.50;;;1.60;86.50;;;;;;5068695;28;20726;-83
2021/03/24 02:33:53;;;;;;;24.02;18.90;;;1.60;86.80;;;;;;5070879;28;20214;-82
2021/03/24 02:36:23;;;;;;;23.13;17.05;;;1.60;88.30;;;;;;5072543;28;20290;-83
2021/03/24 02:38:55;;;;;;;24.83;17.90;;;1.70;88.10;;;;;;5071986;28;20222;-82
2021/03/24 02:41:23;;;;;;;22.13;15.05;;;1.80;88.70;;;;;;5072466;28;20199;-82
2021/03/24 02:43:52;;;;;;;21.27;17.00;;;1.80;88.10;;;;;;5071785;28;20586;-83
2021/03/24 02:46:21;;;;;;;22.48;17.02;;;1.80;87.70;;;;;;5073059;28;20199;-83
2021/03/24 02:48:49;;;;;;;20.58;17.73;;;1.70;87.60;;;;;;5072399;28;20676;-83
2021/03/24 02:51:19;;;;;;;26.85;17.88;;;1.80;87.80;;;;;;5072994;28;20235;-83
2021/03/24 02:53:48;;;;;;;21.13;15.05;;;1.70;87.40;;;;;;5072564;28;20207;-83
2021/03/24 02:56:16;;;;;;;18.98;14.85;;;1.80;87.80;;;;;;5072864;28;20202;-82
2021/03/24 02:58:44;;;;;;;22.35;17.50;;;1.80;87.80;;;;;;5072866;28;20200;-83
2021/03/24 03:01:16;;;;;;;21.95;17.42;;;1.90;87.90;;;;;;5073025;28;20193;-83
2021/03/24 03:03:48;;;;;;;22.08;17.50;;;1.90;87.60;;;;;;5072210;28;20537;-83
2021/03/24 03:06:19;;;;;;;23.63;17.00;;;1.90;87.20;;;;;;5068175;28;20302;-83
2021/03/24 03:08:49;;;;;;;23.27;15.77;;;1.90;87.40;;;;;;5072859;28;20206;-82
2021/03/24 03:11:23;;;;;;;24.92;18.30;;;1.90;87.40;;;;;;5072613;28;20211;-82
2021/03/24 03:13:53;;;;;;;21.05;17.25;;;1.90;87.50;;;;;;5071902;28;20218;-83
2021/03/24 03:16:28;;;;;;;25.00;17.63;;;2.00;87.10;;;;;;5073277;28;20214;-83
2021/03/24 03:19:00;;;;;;;27.15;18.80;;;1.90;86.80;;;;;;5072216;28;20260;-83
2021/03/24 03:21:32;;;;;;;23.95;17.27;;;1.90;87.10;;;;;;5072198;28;20203;-82
2021/03/24 03:24:02;;;;;;;28.08;18.73;;;2.00;87.20;;;;;;5055296;28;20207;-83
2021/03/24 03:26:31;;;;;;;29.35;17.80;;;2.10;87.30;;;;;;5072689;28;20221;-83
2021/03/24 03:29:04;;;;;;;26.67;17.60;;;2.10;86.80;;;;;;5071906;28;20475;-82
2021/03/24 03:31:35;;;;;;;20.13;16.30;;;2.10;86.90;;;;;;5071779;28;20257;-82
2021/03/24 03:34:03;;;;;;;27.23;19.17;;;2.00;86.60;;;;;;5071475;28;20252;-82
2021/03/24 03:36:32;;;;;;;24.35;18.50;;;2.10;86.50;;;;;;5071201;28;20204;-83
2021/03/24 03:39:00;;;;;;;22.98;18.38;;;2.00;86.40;;;;;;5068806;28;20208;-83
2021/03/24 03:41:29;;;;;;;24.13;19.35;;;2.00;86.80;;;;;;5072268;28;20199;-82
2021/03/24 03:43:56;;;;;;;21.40;16.60;;;1.90;86.90;;;;;;5070855;28;20660;-83
2021/03/24 03:46:28;;;;;;;20.40;16.15;;;1.90;87.40;;;;;;5071423;28;20210;-83
2021/03/24 03:48:55;;;;;;;20.48;17.42;;;2.00;87.70;;;;;;5072085;28;20191;-83
2021/03/24 03:51:31;;;;;;;22.48;17.15;;;1.90;87.60;;;;;;5072334;28;20219;-83
2021/03/24 03:54:05;;;;;;;21.98;16.92;;;2.00;87.80;;;;;;5071324;28;20199;-83
2021/03/24 03:56:35;;;;;;;27.27;17.00;;;2.00;87.80;;;;;;5072398;28;20203;-82
2021/03/24 03:59:13;;;;;;;25.98;17.02;;;1.90;87.70;;;;;;5071811;28;20256;-83
2021/03/24 04:01:43;;;;;;;23.20;17.27;;;1.90;88.40;;;;;;5071481;28;20218;-83
2021/03/24 04:04:17;;;;;;;23.10;16.50;;;1.80;88.00;;;;;;5071060;28;20598;-83
2021/03/24 04:06:47;;;;;;;29.98;19.73;;;1.90;87.80;;;;;;5072250;28;20699;-83
2021/03/24 04:09:14;;;;;;;21.85;16.58;;;1.90;87.60;;;;;;5071469;28;20210;-83
2021/03/24 04:11:43;;;;;;;25.67;17.60;;;1.90;87.50;;;;;;5071764;28;20242;-83
2021/03/24 04:14:13;;;;;;;25.65;17.27;;;1.90;87.60;;;;;;5070858;28;20664;-83
2021/03/24 04:16:39;;;;;;;19.45;16.83;;;2.00;88.00;;;;;;5071715;28;20203;-83
2021/03/24 04:19:08;;;;;;;23.35;16.65;;;2.00;87.30;;;;;;5071282;28;20203;-83
2021/03/24 04:21:39;;;;;;;24.08;18.20;;;2.00;87.10;;;;;;5072118;28;20191;-83
2021/03/24 04:24:12;;;;;;;23.95;16.45;;;2.10;87.30;;;;;;5055139;28;20540;-82
2021/03/24 04:26:42;;;;;;;21.02;16.15;;;2.00;86.90;;;;;;5071347;28;20245;-82
2021/03/24 04:29:12;;;;;;;24.77;17.65;;;1.90;86.80;;;;;;5071263;28;20252;-83
2021/03/24 04:31:46;;;;;;;23.90;17.73;;;2.00;87.30;;;;;;5071637;28;20227;-83
2021/03/24 04:34:12;;;;;;;26.52;17.55;;;2.10;87.50;;;;;;5069668;28;20191;-82
2021/03/24 04:36:43;;;;;;;20.27;17.38;;;2.00;87.10;;;;;;5071057;28;20653;-82
2021/03/24 04:39:17;;;;;;;26.70;17.30;;;1.80;87.10;;;;;;5069456;28;20294;-83
2021/03/24 04:41:46;;;;;;;21.27;16.50;;;1.90;86.60;;;;;;5071501;28;20211;-83
2021/03/24 04:44:18;;;;;;;21.63;15.90;;;1.70;86.20;;;;;;5070969;28;20204;-83
2021/03/24 04:46:47;;;;;;;21.00;16.10;;;1.70;86.20;;;;;;5071351;28;20825;-82
2021/03/24 04:49:16;;;;;;;22.88;17.27;;;1.50;86.20;;;;;;5071611;28;20243;-82
2021/03/24 04:51:45;;;;;;;23.90;17.58;;;1.50;86.90;;;;;;5070608;28;20223;-83
2021/03/24 04:54:16;;;;;;;23.42;17.98;;;1.50;88.10;;;;;;5070596;28;20227;-83
2021/03/24 04:56:46;;;;;;;24.23;18.30;;;1.50;88.20;;;;;;5071235;28;20203;-83
2021/03/24 04:59:17;;;;;;;21.67;17.02;;;1.50;88.90;;;;;;5071024;28;20226;-83
2021/03/24 05:01:46;;;;;;;27.77;18.27;;;1.50;89.10;;;;;;5070972;28;20265;-82
2021/03/24 05:04:19;;;;;;;21.58;17.40;;;1.50;89.20;;;;;;5069996;28;20199;-83
2021/03/24 05:06:51;;;;;;;25.27;17.63;;;1.60;89.40;;;;;;5071067;28;20570;-83
2021/03/24 05:09:17;;;;;;;26.92;18.40;;;1.40;88.30;;;;;;5070802;28;20766;-83
2021/03/24 05:11:49;;;;;;;27.90;17.10;;;1.40;88.30;;;;;;5070443;28;20218;-83
2021/03/24 05:14:26;;;;;;;21.63;17.25;;;1.40;88.40;;;;;;5069935;28;20191;-83
2021/03/24 05:17:05;;;;;;;23.80;17.50;;;1.40;89.10;;;;;;5070467;28;20296;-83
2021/03/24 05:19:32;;;;;;;25.67;19.85;;;1.40;89.50;;;;;;5070465;28;20213;-83
2021/03/24 05:22:10;;;;;;;24.20;18.50;;;1.60;90.00;;;;;;5068138;28;20242;-83
2021/03/24 05:24:39;;;;;;;25.92;18.70;;;1.60;89.50;;;;;;5069229;28;20656;-83
2021/03/24 05:27:13;;;;;;;22.15;17.80;;;1.60;88.50;;;;;;5070233;28;20192;-83
2021/03/24 05:29:43;;;;;;;23.83;17.75;;;1.60;88.80;;;;;;5070191;28;20245;-83
2021/03/24 05:32:17;;;;;;;22.65;17.48;;;1.60;88.60;;;;;;5054890;28;20200;-82
2021/03/24 05:34:46;;;;;;;21.30;16.88;;;1.60;88.70;;;;;;5062110;28;20203;-83
2021/03/24 05:37:13;;;;;;;26.83;18.15;;;1.60;88.80;;;;;;5069659;28;20210;-83
2021/03/24 05:39:49;;;;;;;21.77;17.00;;;1.70;89.10;;;;;;5067945;28;20203;-83
2021/03/24 05:42:32;;;;;;;22.65;18.80;;;1.70;89.00;;;;;;5070041;28;20191;-83
2021/03/24 05:45:24;;;;;;;21.23;16.75;;;1.80;89.00;;;;;;5070367;28;20203;-83
2021/03/24 05:48:12;;;;;;;23.45;17.30;;;1.70;89.20;;;;;;5070008;28;20203;-83
2021/03/24 05:50:50;;;;;;;23.15;17.55;;;1.80;89.40;;;;;;5033207;28;20269;-83
2021/03/24 05:53:45;;;;;;;23.80;17.73;;;1.80;89.40;;;;;;5070465;28;20244;-82
2021/03/24 05:56:18;;;;;;;21.75;16.88;;;1.70;88.70;;;;;;5058552;28;20668;-83
2021/03/24 05:58:53;;;;;;;21.27;17.05;;;1.70;89.00;;;;;;5070429;28;20255;-83
2021/03/24 06:01:27;;;;;;;24.45;18.55;;;1.70;89.00;;;;;;5070105;28;20198;-83
2021/03/24 06:04:16;;;;;;;26.05;17.20;;;1.80;89.00;;;;;;5068876;28;20230;-83
2021/03/24 06:07:27;;;;;;;22.85;17.52;;;1.90;88.80;;;;;;5070144;28;20269;-82
2021/03/24 06:10:24;;;;;;;22.10;17.10;;;1.90;88.60;;;;;;5065133;28;20215;-82
2021/03/24 06:13:18;;;;;;;26.05;18.67;;;2.00;88.80;;;;;;5073397;28;20209;-83
2021/03/24 06:16:10;;;;;;;22.73;17.63;;;2.10;88.50;;;;;;5074442;28;20265;-82
2021/03/24 06:18:55;;;;;;;22.63;18.25;;;2.20;88.20;;;;;;5073691;28;20218;-82
2021/03/24 06:21:29;;;;;;;23.70;18.00;;;2.20;88.20;;;;;;5056662;28;20227;-82
2021/03/24 06:24:32;;;;;;;21.83;17.83;;;2.20;88.10;;;;;;5073929;28;20210;-82
2021/03/24 06:27:22;;;;;;;24.52;17.45;;;2.40;88.00;;;;;;5024959;28;20692;-83
2021/03/24 06:30:01;;;;;;;26.38;18.95;;;2.40;88.10;;;;;;5064395;28;20685;-83
2021/03/24 06:32:54;;;;;;;23.35;18.13;;;2.40;88.30;;;;;;5069725;28;20552;-82
2021/03/24 06:35:40;;;;;;;23.05;18.20;;;2.50;89.00;;;;;;5067324;28;20198;-82
2021/03/24 06:38:20;;;;;;;22.30;18.77;;;2.60;88.20;;;;;;5064435;28;20204;-83
2021/03/24 06:41:10;;;;;;;27.38;18.60;;;2.60;88.20;;;;;;5063413;28;20260;-82
2021/03/24 06:43:48;;;;;;;22.67;19.40;;;2.70;88.40;;;;;;5055602;28;20711;-83
2021/03/24 06:46:34;;;;;;;26.60;19.33;;;2.70;88.50;;;;;;5065700;28;20600;-83
2021/03/24 06:49:19;;;;;;;25.58;19.15;;;2.80;88.50;;;;;;5058210;28;20220;-83
2021/03/24 06:52:19;;;;;;;33.38;18.60;;;3.00;88.70;;;;;;5073093;28;20223;-83
2021/03/24 06:55:18;;;;;;;23.88;19.30;;;3.00;88.30;;;;;;5060789;28;20211;-83
2021/03/24 06:58:20;;;;;;;22.23;18.83;;;3.10;88.80;;;;;;5030239;28;20692;-83
2021/03/24 07:01:10;;;;;;;28.45;20.55;;;3.20;88.90;;;;;;5071781;28;20561;-82
2021/03/24 07:04:16;;;;;;;27.35;19.80;;;3.40;89.40;;;;;;5051741;28;20216;-82
2021/03/24 07:06:52;;;;;;;29.30;21.33;;;3.50;89.40;;;;;;5067746;28;20206;-83
2021/03/24 07:09:27;;;;;;;24.02;18.38;;;3.70;90.00;;;;;;5072864;28;20194;-83
2021/03/24 07:12:05;;;;;;;28.60;20.83;;;3.80;89.30;;;;;;5073067;28;20215;-83
2021/03/24 07:15:07;;;;;;;25.75;20.23;;;4.00;89.30;;;;;;5071686;28;20207;-84
2021/03/24 07:18:05;;;;;;;26.52;19.58;;;4.10;89.00;;;;;;5065936;28;20203;-84
2021/03/24 07:20:55;;;;;;;25.83;19.08;;;4.20;88.60;;;;;;5073035;28;20227;-84
2021/03/24 07:23:49;;;;;;;27.70;19.35;;;4.50;88.80;;;;;;5072285;28;20191;-84
2021/03/24 07:26:30;;;;;;;26.67;19.33;;;4.90;88.20;;;;;;5065043;28;20204;-85
2021/03/24 07:29:10;;;;;;;27.90;17.92;;;5.60;86.80;;;;;;5055767;28;20286;-85
2021/03/24 07:32:00;;;;;;;22.10;16.90;;;5.80;85.00;;;;;;5072654;28;20199;-85
2021/03/24 07:34:49;;;;;;;25.73;18.98;;;5.60;82.30;;;;;;5071041;28;20260;-84
2021/03/24 07:37:45;;;;;;;25.40;17.25;;;5.20;82.40;;;;;;5072323;28;20641;-85
2021/03/24 07:40:54;;;;;;;23.90;18.52;;;5.40;84.80;;;;;;5072191;28;20227;-85
2021/03/24 07:43:37;;;;;;;21.85;17.13;;;5.60;83.60;;;;;;4997547;28;20205;-84
2021/03/24 07:46:25;;;;;;;25.35;18.50;;;5.60;82.90;;;;;;4990874;28;20224;-85
2021/03/24 07:49:15;;;;;;;21.75;17.67;;;5.80;83.10;;;;;;5052266;28;20318;-85
2021/03/24 07:52:10;;;;;;;27.95;19.90;;;5.80;83.00;;;;;;5074497;28;20199;-85
2021/03/24 07:54:43;;;;;;;29.70;19.63;;;6.10;82.60;;;;;;5073319;28;20606;-85
2021/03/24 07:57:22;;;;;;;25.02;17.52;;;6.00;81.90;;;;;;5073115;28;20203;-85
2021/03/24 07:59:57;;;;;;;24.25;18.17;;;5.80;81.00;;;;;;5074270;28;20598;-84
2021/03/24 08:02:36;;;;;;;23.85;18.52;;;5.80;82.30;;;;;;5073483;28;20237;-84
2021/03/24 08:05:26;;;;;;;23.67;18.42;;;6.10;83.00;;;;;;5072874;28;20195;-85
2021/03/24 08:08:03;;;;;;;21.85;16.73;;;6.40;82.50;;;;;;5073099;28;20207;-84
2021/03/24 08:10:36;;;;;;;23.85;17.75;;;6.50;81.90;;;;;;5072979;28;20206;-84
2021/03/24 08:13:22;;;;;;;24.67;16.67;;;6.60;81.30;;;;;;5073128;28;20195;-84
2021/03/24 08:16:02;;;;;;;24.63;19.25;;;6.70;80.60;;;;;;5072382;28;20209;-84
2021/03/24 08:18:39;;;;;;;23.95;16.60;;;6.90;80.60;;;;;;5072284;28;20215;-85
2021/03/24 08:21:12;;;;;;;24.25;17.75;;;6.90;80.00;;;;;;5071873;28;20235;-84
2021/03/24 08:23:56;;;;;;;22.83;17.70;;;7.00;79.20;;;;;;5072345;28;20214;-84
2021/03/24 08:26:30;;;;;;;22.48;16.60;;;7.20;79.30;;;;;;5071624;28;20211;-84
2021/03/24 08:29:04;;;;;;;21.15;15.80;;;7.30;78.60;;;;;;5071858;28;20199;-84
2021/03/24 08:32:05;;;;;;;21.67;17.45;;;7.40;77.60;;;;;;5070876;28;20197;-84
2021/03/24 08:34:49;;;;;;;18.83;14.98;;;7.40;77.70;;;;;;5071467;28;20252;-84
2021/03/24 08:37:48;;;;;;;23.30;16.52;;;7.30;77.40;;;;;;5071351;28;20249;-84
2021/03/24 08:41:03;;;;;;;21.63;17.08;;;7.40;76.70;;;;;;5054621;28;20688;-84
2021/03/24 08:43:44;;;;;;;25.60;18.48;;;7.60;77.00;;;;;;5067386;28;20272;-83
2021/03/24 08:46:18;;;;;;;22.52;16.67;;;7.80;77.50;;;;;;5067164;28;20199;-84
2021/03/24 08:48:49;;;;;;;24.73;18.00;;;7.80;76.50;;;;;;5070840;28;20569;-84
2021/03/24 08:51:23;;;;;;;24.20;16.42;;;7.90;76.50;;;;;;5070313;28;20203;-84
2021/03/24 08:54:12;;;;;;;21.88;15.30;;;8.10;75.90;;;;;;5069907;28;20206;-85
2021/03/24 08:56:48;;;;;;;22.52;15.88;;;8.40;76.60;;;;;;5070736;28;20195;-84
2021/03/24 08:59:25;;;;;;;22.40;16.33;;;8.50;75.50;;;;;;5071950;28;20199;-84
2021/03/24 09:02:17;;;;;;;21.27;15.82;;;8.60;73.90;;;;;;5072233;28;20233;-85
2021/03/24 09:05:07;;;;;;;24.70;17.17;;;8.70;75.40;;;;;;5070528;28;20195;-84
2021/03/24 09:08:07;;;;;;;19.75;15.73;;;8.60;73.70;;;;;;5070421;28;20207;-85
2021/03/24 09:10:49;;;;;;;22.52;16.38;;;8.70;74.30;;;;;;5070281;28;20218;-84
2021/03/24 09:13:24;;;;;;;26.35;16.25;;;8.90;74.40;;;;;;5071149;28;20195;-84
2021/03/24 09:16:39;;;;;;;20.52;17.35;;;9.20;73.70;;;;;;5069698;28;20263;-84
2021/03/24 09:19:18;;;;;;;25.40;16.95;;;9.30;73.90;;;;;;5070352;28;20264;-84
2021/03/24 09:21:53;;;;;;;25.50;16.95;;;9.50;73.20;;;;;;5070012;28;20226;-84
2021/03/24 09:24:48;;;;;;;22.27;16.40;;;9.20;70.60;;;;;;5058738;28;20205;-84
2021/03/24 09:27:50;;;;;;;19.52;15.85;;;9.10;72.40;;;;;;5069936;28;20199;-85
2021/03/24 09:30:57;;;;;;;23.35;15.30;;;9.30;72.80;;;;;;5065606;28;20196;-85
2021/03/24 09:33:52;;;;;;;20.42;15.13;;;9.50;72.60;;;;;;5063809;28;20568;-84
2021/03/24 09:36:40;;;;;;;23.95;17.40;;;9.60;71.70;;;;;;5069412;28;20628;-84
2021/03/24 09:39:17;;;;;;;22.35;15.93;;;9.50;71.70;;;;;;5068658;28;20593;-84
2021/03/24 09:41:49;;;;;;;21.55;16.35;;;9.70;72.60;;;;;;5070131;28;20325;-84
2021/03/24 09:44:22;;;;;;;20.20;16.10;;;9.90;71.90;;;;;;5069638;28;20687;-84
2021/03/24 09:46:53;;;;;;;17.93;15.13;;;10.10;70.20;;;;;;5060197;28;20625;-85
2021/03/24 09:49:26;;;;;;;17.75;14.38;;;10.20;68.40;;;;;;5070180;28;20644;-84
2021/03/24 09:52:18;;;;;;;22.27;16.07;;;10.40;67.50;;;;;;5069929;28;20617;-85
2021/03/24 09:55:05;;;;;;;20.13;14.53;;;10.50;67.30;;;;;;5068438;28;20653;-84
2021/03/24 09:58:09;;;;;;;20.80;16.43;;;10.70;67.00;;;;;;5069876;28;21177;-85
2021/03/24 10:00:40;;;;;;;16.80;15.00;;;10.90;67.60;;;;;;5069835;28;20983;-84
2021/03/24 10:03:18;;;;;;;24.23;18.07;;;10.60;67.80;;;;;;5069362;28;21240;-85
2021/03/24 10:05:54;;;;;;;20.73;16.50;;;10.80;68.40;;;;;;5069929;28;20640;-85
2021/03/24 10:08:29;;;;;;;21.10;16.90;;;10.90;68.10;;;;;;5063761;28;20632;-84
2021/03/24 10:11:02;;;;;;;21.60;17.20;;;11.10;67.90;;;;;;5069424;28;20613;-84
2021/03/24 10:13:33;;;;;;;20.37;16.70;;;11.30;68.60;;;;;;5068805;28;20633;-85
2021/03/24 10:16:01;;;;;;;25.40;18.50;;;11.50;67.70;;;;;;5069568;28;20610;-84
2021/03/24 10:18:33;;;;;;;22.93;13.50;;;11.60;65.70;;;;;;5069670;28;20621;-85
2021/03/24 10:21:06;;;;;;;20.70;15.50;;;10.90;65.30;;;;;;5069149;28;20665;-85
2021/03/24 10:23:38;;;;;;;22.57;15.87;;;11.10;66.70;;;;;;5069265;28;20613;-84
2021/03/24 10:26:14;;;;;;;19.17;14.40;;;11.30;65.40;;;;;;5069540;28;20657;-84
2021/03/24 10:28:43;;;;;;;15.80;11.73;;;11.60;64.40;;;;;;5069701;28;21007;-85
2021/03/24 10:31:17;;;;;;;20.10;13.47;;;11.70;62.90;;;;;;5061123;28;20610;-84
2021/03/24 10:33:50;;;;;;;14.83;13.30;;;11.70;62.50;;;;;;5069578;28;20934;-85
2021/03/24 10:36:23;;;;;;;21.57;13.30;;;11.90;62.20;;;;;;5068833;28;20628;-84
2021/03/24 10:38:54;;;;;;;18.43;13.87;;;11.90;61.80;;;;;;5069323;28;20960;-85
2021/03/24 10:41:43;;;;;;;19.03;13.70;;;11.90;62.30;;;;;;5068904;28;20736;-85
2021/03/24 10:44:17;;;;;;;16.23;12.70;;;11.90;62.20;;;;;;5069187;28;20613;-84
2021/03/24 10:47:05;;;;;;;14.27;12.07;;;11.90;61.80;;;;;;5069000;28;20620;-85
2021/03/24 10:49:39;;;;;;;15.43;12.57;;;11.80;61.50;;;;;;5066774;28;21068;-85
2021/03/24 10:52:15;;;;;;;14.20;11.63;;;12.10;61.60;;;;;;5068636;28;20617;-85
2021/03/24 10:54:42;;;;;;;16.07;12.70;;;12.20;61.70;;;;;;5071640;28;20593;-85
2021/03/24 10:57:25;;;;;;;14.30;11.70;;;12.40;61.60;;;;;;5073183;28;20625;-85
2021/03/24 11:00:06;;;;;;;19.53;12.90;;;12.60;61.10;;;;;;5073249;28;20621;-85
2021/03/24 11:02:39;;;;;;;16.80;13.83;;;12.70;59.60;;;;;;5071235;28;20649;-84
2021/03/24 11:05:12;;;;;;;14.17;11.70;;;12.70;59.30;;;;;;5073190;28;20999;-85
2021/03/24 11:07:45;;;;;;;16.60;12.40;;;12.70;60.00;;;;;;5072752;28;20629;-85
2021/03/24 11:10:39;;;;;;;14.00;12.57;;;12.90;59.50;;;;;;5072649;28;20613;-85
2021/03/24 11:13:16;;;;;;;16.73;13.30;;;11.90;59.50;;;;;;5072292;28;20625;-85
2021/03/24 11:16:00;;;;;;;14.73;12.47;;;12.20;61.20;;;;;;5072892;28;20666;-84
2021/03/24 11:18:34;;;;;;;17.90;13.17;;;12.60;59.90;;;;;;5072784;28;20640;-85
2021/03/24 11:21:07;;;;;;;15.03;11.80;;;12.80;60.10;;;;;;5072206;28;20641;-85
2021/03/24 11:23:40;;;;;;;20.47;13.57;;;12.80;60.40;;;;;;5070344;28;20613;-85
2021/03/24 11:26:41;;;;;;;21.90;13.30;;;12.70;60.20;;;;;;5071997;28;20636;-85
2021/03/24 11:29:11;;;;;;;14.03;11.90;;;13.00;61.10;;;;;;5069445;28;20625;-85
2021/03/24 11:32:00;;;;;;;15.83;11.90;;;13.00;60.10;;;;;;5056591;28;20621;-85
2021/03/24 11:34:38;;;;;;;15.10;12.13;;;12.80;59.10;;;;;;5059123;28;21194;-85
2021/03/24 11:37:22;;;;;;;12.03;10.63;;;12.90;59.60;;;;;;5072491;28;20625;-84
2021/03/24 11:39:54;;;;;;;14.20;12.63;;;13.00;59.70;;;;;;5071184;28;20625;-85
2021/03/24 11:42:23;;;;;;;13.37;10.83;;;13.30;58.90;;;;;;5072219;28;20663;-85
2021/03/24 11:44:51;;;;;;;14.87;11.90;;;13.40;59.00;;;;;;5072399;28;20624;-85
2021/03/24 11:47:34;;;;;;;13.27;11.83;;;13.30;59.70;;;;;;5072706;28;20615;-85
2021/03/24 11:50:07;;;;;;;13.37;11.97;;;13.40;59.80;;;;;;5072507;28;20630;-85
2021/03/24 11:52:47;;;;;;;16.87;11.67;;;13.40;59.80;;;;;;5071175;28;20935;-85
2021/03/24 11:55:48;;;;;;;14.87;11.90;;;12.90;59.40;;;;;;5070904;28;21001;-85
2021/03/24 11:58:45;;;;;;;17.07;13.97;;;12.70;59.50;;;;;;5064187;28;20613;-85
2021/03/24 12:01:32;;;;;;;15.07;12.70;;;13.00;60.70;;;;;;5052481;28;20651;-85
2021/03/24 12:04:30;;;;;;;12.90;11.20;;;13.30;59.40;;;;;;5057629;28;20622;-87
2021/03/24 12:07:07;;;;;;;16.60;14.33;;;13.50;58.70;;;;;;5050722;28;20610;-85
2021/03/24 12:09:37;;;;;;;16.63;14.00;;;13.50;59.80;;;;;;5060484;28;20622;-85
2021/03/24 12:12:06;;;;;;;14.97;13.40;;;13.40;59.80;;;;;;5070940;28;21018;-85
2021/03/24 12:14:32;;;;;;;18.50;14.17;;;13.30;60.60;;;;;;5071114;28;20622;-85
2021/03/24 12:17:01;;;;;;;15.53;13.00;;;12.90;59.50;;;;;;5071127;28;20629;-84
2021/03/24 12:19:32;;;;;;;17.77;14.90;;;12.70;59.50;;;;;;5070946;28;20656;-86
2021/03/24 12:22:01;;;;;;;18.00;14.30;;;12.80;59.90;;;;;;5071753;28;20685;-85
2021/03/24 12:24:31;;;;;;;18.60;14.67;;;13.20;60.10;;;;;;5070984;28;20614;-85
2021/03/24 12:27:14;;;;;;;18.23;14.40;;;13.50;59.10;;;;;;5072034;28;20614;-85
2021/03/24 12:29:43;;;;;;;14.33;12.83;;;13.80;58.60;;;;;;5072235;28;20684;-85
2021/03/24 12:32:20;;;;;;;15.00;13.50;;;13.70;58.60;;;;;;5061468;28;20623;-85
2021/03/24 12:34:48;;;;;;;16.70;13.50;;;13.40;59.20;;;;;;5072677;28;20676;-85
2021/03/24 12:37:28;;;;;;;20.20;14.87;;;13.40;59.20;;;;;;5071989;28;20624;-85
2021/03/24 12:40:09;;;;;;;18.63;14.30;;;13.80;59.60;;;;;;5073907;28;20627;-84
2021/03/24 12:42:37;;;;;;;15.93;14.33;;;13.80;58.30;;;;;;5071031;28;20677;-85
2021/03/24 12:45:31;;;;;;;19.33;14.43;;;13.90;58.80;;;;;;5071624;28;20631;-86
2021/03/24 12:48:23;;;;;;;20.73;13.97;;;14.20;58.30;;;;;;5072253;28;20658;-85
2021/03/24 12:50:56;;;;;;;17.88;15.45;;;14.30;58.40;;;;;;5069867;28;21081;-86
2021/03/24 12:53:39;;;;;;;16.60;14.33;;;14.50;57.20;;;;;;5070597;28;20654;-85
2021/03/24 12:56:39;;;;;;;17.43;14.23;;;14.50;57.20;;;;;;5068427;28;20673;-85
2021/03/24 12:59:16;;;;;;;16.77;14.77;;;14.60;56.80;;;;;;5070502;28;20624;-85
2021/03/24 13:01:50;;;;;;;17.63;14.07;;;14.40;56.70;;;;;;5070356;28;20643;-85
2021/03/24 13:04:50;;;;;;;15.90;13.63;;;14.60;56.80;;;;;;5069916;28;20655;-85
2021/03/24 13:07:28;;;;;;;16.00;12.93;;;14.70;56.30;;;;;;5070700;28;20662;-85
2021/03/24 13:10:19;;;;;;;17.23;13.80;;;14.60;56.40;;;;;;5070887;28;20616;-85
2021/03/24 13:12:53;;;;;;;15.70;14.03;;;14.60;57.30;;;;;;5058409;28;20628;-85
2021/03/24 13:15:26;;;;;;;19.00;14.70;;;14.10;56.30;;;;;;5070649;28;20655;-85
2021/03/24 13:18:05;;;;;;;16.30;13.20;;;14.30;57.40;;;;;;5070404;28;20686;-85
2021/03/24 13:20:38;;;;;;;16.63;12.80;;;14.40;56.80;;;;;;5070734;28;21015;-85